sensor_id;sensor_type;location;lat;lon;timestamp;temperature;humidity
61117;DHT22;47002;50.856;6.580;2022-09-30T00:01:38;3.40;93.90
61117;DHT22;47002;50.856;6.580;2022-09-30T00:04:05;3.40;93.90
61117;DHT22;47002;50.856;6.580;2022-09-30T00:06:32;3.40;93.90
61117;DHT22;47002;50.856;6.580;2022-09-30T00:09:00;3.30;94.00
61117;DHT22;47002;50.856;6.580;2022-09-30T00:11:27;3.30;94.00
61117;DHT22;47002;50.856;6.580;2022-09-30T00:13:54;3.30;94.10
61117;DHT22;47002;50.856;6.580;2022-09-30T00:16:21;3.30;94.20
61117;DHT22;47002;50.856;6.580;2022-09-30T00:18:47;3.30;94.30
61117;DHT22;47002;50.856;6.580;2022-09-30T00:21:14;3.40;94.40
61117;DHT22;47002;50.856;6.580;2022-09-30T00:23:40;3.30;94.40
61117;DHT22;47002;50.856;6.580;2022-09-30T00:26:11;3.30;94.40
61117;DHT22;47002;50.856;6.580;2022-09-30T00:28:37;3.30;94.40
61117;DHT22;47002;50.856;6.580;2022-09-30T00:31:05;3.30;94.50
61117;DHT22;47002;50.856;6.580;2022-09-30T00:33:31;3.40;94.70
61117;DHT22;47002;50.856;6.580;2022-09-30T00:35:57;3.40;94.80
61117;DHT22;47002;50.856;6.580;2022-09-30T00:38:22;3.40;94.70
61117;DHT22;47002;50.856;6.580;2022-09-30T00:40:48;3.40;94.70
61117;DHT22;47002;50.856;6.580;2022-09-30T00:43:17;3.30;94.70
61117;DHT22;47002;50.856;6.580;2022-09-30T00:45:47;3.30;94.80
61117;DHT22;47002;50.856;6.580;2022-09-30T00:48:17;3.30;94.90
61117;DHT22;47002;50.856;6.580;2022-09-30T00:50:44;3.30;95.00
61117;DHT22;47002;50.856;6.580;2022-09-30T00:53:14;3.30;95.00
61117;DHT22;47002;50.856;6.580;2022-09-30T00:55:46;3.40;95.10
61117;DHT22;47002;50.856;6.580;2022-09-30T00:58:16;3.40;95.10
61117;DHT22;47002;50.856;6.580;2022-09-30T01:00:43;3.30;95.10
61117;DHT22;47002;50.856;6.580;2022-09-30T01:03:09;3.30;95.10
61117;DHT22;47002;50.856;6.580;2022-09-30T01:05:34;3.30;95.10
61117;DHT22;47002;50.856;6.580;2022-09-30T01:08:03;3.30;95.20
61117;DHT22;47002;50.856;6.580;2022-09-30T01:10:29;3.30;95.10
61117;DHT22;47002;50.856;6.580;2022-09-30T01:12:55;3.20;95.10
61117;DHT22;47002;50.856;6.580;2022-09-30T01:15:31;3.20;95.10
61117;DHT22;47002;50.856;6.580;2022-09-30T01:18:05;3.10;95.00
61117;DHT22;47002;50.856;6.580;2022-09-30T01:24:06;3.00;95.00
61117;DHT22;47002;50.856;6.580;2022-09-30T01:26:56;3.10;95.10
61117;DHT22;47002;50.856;6.580;2022-09-30T01:32:31;3.00;95.20
61117;DHT22;47002;50.856;6.580;2022-09-30T01:35:08;3.00;95.20
61117;DHT22;47002;50.856;6.580;2022-09-30T01:37:43;3.00;95.20
61117;DHT22;47002;50.856;6.580;2022-09-30T01:40:18;2.90;95.20
61117;DHT22;47002;50.856;6.580;2022-09-30T01:42:52;2.90;95.20
61117;DHT22;47002;50.856;6.580;2022-09-30T01:45:27;2.90;95.30
61117;DHT22;47002;50.856;6.580;2022-09-30T01:48:00;2.80;95.30
61117;DHT22;47002;50.856;6.580;2022-09-30T01:50:35;2.80;95.30
61117;DHT22;47002;50.856;6.580;2022-09-30T01:53:07;2.80;95.40
61117;DHT22;47002;50.856;6.580;2022-09-30T01:55:37;2.80;95.40
61117;DHT22;47002;50.856;6.580;2022-09-30T01:58:07;2.80;95.50
61117;DHT22;47002;50.856;6.580;2022-09-30T02:00:37;2.80;95.40
61117;DHT22;47002;50.856;6.580;2022-09-30T02:03:10;2.80;95.50
61117;DHT22;47002;50.856;6.580;2022-09-30T02:05:41;2.70;95.50
61117;DHT22;47002;50.856;6.580;2022-09-30T02:08:12;2.70;95.50
61117;DHT22;47002;50.856;6.580;2022-09-30T02:10:43;2.70;95.50
61117;DHT22;47002;50.856;6.580;2022-09-30T02:13:14;2.70;95.50
61117;DHT22;47002;50.856;6.580;2022-09-30T02:15:45;2.70;95.50
61117;DHT22;47002;50.856;6.580;2022-09-30T02:18:16;2.70;95.70
61117;DHT22;47002;50.856;6.580;2022-09-30T02:20:49;2.60;95.70
61117;DHT22;47002;50.856;6.580;2022-09-30T02:23:20;2.70;95.80
61117;DHT22;47002;50.856;6.580;2022-09-30T02:25:50;2.70;95.80
61117;DHT22;47002;50.856;6.580;2022-09-30T02:28:21;2.80;95.90
61117;DHT22;47002;50.856;6.580;2022-09-30T02:30:51;2.80;95.90
61117;DHT22;47002;50.856;6.580;2022-09-30T02:33:23;2.80;95.90
61117;DHT22;47002;50.856;6.580;2022-09-30T02:35:54;2.80;95.90
61117;DHT22;47002;50.856;6.580;2022-09-30T02:38:25;2.80;95.90
61117;DHT22;47002;50.856;6.580;2022-09-30T02:40:56;2.70;95.80
61117;DHT22;47002;50.856;6.580;2022-09-30T02:43:23;2.70;95.80
61117;DHT22;47002;50.856;6.580;2022-09-30T02:45:54;2.60;95.80
61117;DHT22;47002;50.856;6.580;2022-09-30T02:48:28;2.60;95.70
61117;DHT22;47002;50.856;6.580;2022-09-30T02:51:00;2.40;95.60
61117;DHT22;47002;50.856;6.580;2022-09-30T02:53:29;2.40;95.60
61117;DHT22;47002;50.856;6.580;2022-09-30T02:56:18;2.30;95.60
61117;DHT22;47002;50.856;6.580;2022-09-30T02:58:46;2.20;95.50
61117;DHT22;47002;50.856;6.580;2022-09-30T03:01:15;2.20;95.50
61117;DHT22;47002;50.856;6.580;2022-09-30T03:03:45;2.10;95.50
61117;DHT22;47002;50.856;6.580;2022-09-30T03:06:12;2.10;95.50
61117;DHT22;47002;50.856;6.580;2022-09-30T03:08:38;2.00;95.40
61117;DHT22;47002;50.856;6.580;2022-09-30T03:11:04;2.00;95.40
61117;DHT22;47002;50.856;6.580;2022-09-30T03:13:51;1.90;95.40
61117;DHT22;47002;50.856;6.580;2022-09-30T03:16:22;1.90;95.50
61117;DHT22;47002;50.856;6.580;2022-09-30T03:19:00;1.90;95.50
61117;DHT22;47002;50.856;6.580;2022-09-30T03:21:38;1.80;95.50
61117;DHT22;47002;50.856;6.580;2022-09-30T03:24:26;1.80;95.50
61117;DHT22;47002;50.856;6.580;2022-09-30T03:26:59;1.80;95.50
61117;DHT22;47002;50.856;6.580;2022-09-30T03:29:33;1.80;95.50
61117;DHT22;47002;50.856;6.580;2022-09-30T03:32:10;1.80;95.50
61117;DHT22;47002;50.856;6.580;2022-09-30T03:34:55;1.80;95.60
61117;DHT22;47002;50.856;6.580;2022-09-30T03:37:29;1.70;95.50
61117;DHT22;47002;50.856;6.580;2022-09-30T03:40:00;1.80;95.60
61117;DHT22;47002;50.856;6.580;2022-09-30T03:42:33;1.80;95.80
61117;DHT22;47002;50.856;6.580;2022-09-30T03:45:03;1.80;95.90
61117;DHT22;47002;50.856;6.580;2022-09-30T03:47:33;1.90;96.00
61117;DHT22;47002;50.856;6.580;2022-09-30T03:50:05;2.00;96.00
61117;DHT22;47002;50.856;6.580;2022-09-30T03:52:32;2.10;96.10
61117;DHT22;47002;50.856;6.580;2022-09-30T03:55:01;2.20;96.30
61117;DHT22;47002;50.856;6.580;2022-09-30T03:57:27;2.30;96.30
61117;DHT22;47002;50.856;6.580;2022-09-30T03:59:53;2.30;96.20
61117;DHT22;47002;50.856;6.580;2022-09-30T04:02:19;2.30;96.20
61117;DHT22;47002;50.856;6.580;2022-09-30T04:04:44;2.20;96.10
61117;DHT22;47002;50.856;6.580;2022-09-30T04:07:12;2.10;96.10
61117;DHT22;47002;50.856;6.580;2022-09-30T04:09:37;2.10;96.10
61117;DHT22;47002;50.856;6.580;2022-09-30T04:12:04;2.00;96.00
61117;DHT22;47002;50.856;6.580;2022-09-30T04:14:30;1.90;96.00
61117;DHT22;47002;50.856;6.580;2022-09-30T04:16:56;1.90;96.00
61117;DHT22;47002;50.856;6.580;2022-09-30T04:19:21;1.90;96.00
61117;DHT22;47002;50.856;6.580;2022-09-30T04:21:49;1.80;96.00
61117;DHT22;47002;50.856;6.580;2022-09-30T04:24:16;1.80;96.00
61117;DHT22;47002;50.856;6.580;2022-09-30T04:26:42;1.70;96.00
61117;DHT22;47002;50.856;6.580;2022-09-30T04:29:07;1.70;95.90
61117;DHT22;47002;50.856;6.580;2022-09-30T04:31:33;1.60;95.90
61117;DHT22;47002;50.856;6.580;2022-09-30T04:33:59;1.60;95.90
61117;DHT22;47002;50.856;6.580;2022-09-30T04:36:25;1.60;95.90
61117;DHT22;47002;50.856;6.580;2022-09-30T04:38:50;1.60;95.90
61117;DHT22;47002;50.856;6.580;2022-09-30T04:41:18;1.50;95.90
61117;DHT22;47002;50.856;6.580;2022-09-30T04:43:44;1.50;95.90
61117;DHT22;47002;50.856;6.580;2022-09-30T04:46:10;1.40;95.90
61117;DHT22;47002;50.856;6.580;2022-09-30T04:48:36;1.50;96.00
61117;DHT22;47002;50.856;6.580;2022-09-30T04:51:02;1.40;96.00
61117;DHT22;47002;50.856;6.580;2022-09-30T04:53:28;1.40;95.90
61117;DHT22;47002;50.856;6.580;2022-09-30T04:55:57;1.30;95.90
61117;DHT22;47002;50.856;6.580;2022-09-30T04:58:25;1.30;96.00
61117;DHT22;47002;50.856;6.580;2022-09-30T05:00:51;1.40;96.10
61117;DHT22;47002;50.856;6.580;2022-09-30T05:03:16;1.50;96.20
61117;DHT22;47002;50.856;6.580;2022-09-30T05:05:43;1.50;96.20
61117;DHT22;47002;50.856;6.580;2022-09-30T05:08:09;1.60;96.20
61117;DHT22;47002;50.856;6.580;2022-09-30T05:10:34;1.60;96.20
61117;DHT22;47002;50.856;6.580;2022-09-30T05:13:00;1.60;96.30
61117;DHT22;47002;50.856;6.580;2022-09-30T05:15:27;1.50;96.30
61117;DHT22;47002;50.856;6.580;2022-09-30T05:17:53;1.60;96.40
61117;DHT22;47002;50.856;6.580;2022-09-30T05:20:19;1.60;96.40
61117;DHT22;47002;50.856;6.580;2022-09-30T05:22:44;1.60;96.40
61117;DHT22;47002;50.856;6.580;2022-09-30T05:25:10;1.70;96.50
61117;DHT22;47002;50.856;6.580;2022-09-30T05:27:36;1.70;96.50
61117;DHT22;47002;50.856;6.580;2022-09-30T05:30:02;1.80;96.60
61117;DHT22;47002;50.856;6.580;2022-09-30T05:32:30;1.80;96.60
61117;DHT22;47002;50.856;6.580;2022-09-30T05:34:55;1.90;96.60
61117;DHT22;47002;50.856;6.580;2022-09-30T05:37:21;1.90;96.60
61117;DHT22;47002;50.856;6.580;2022-09-30T05:39:46;1.90;96.60
61117;DHT22;47002;50.856;6.580;2022-09-30T05:42:12;1.90;96.60
61117;DHT22;47002;50.856;6.580;2022-09-30T05:44:38;1.90;96.60
61117;DHT22;47002;50.856;6.580;2022-09-30T05:47:03;2.00;96.60
61117;DHT22;47002;50.856;6.580;2022-09-30T05:49:30;2.00;96.70
61117;DHT22;47002;50.856;6.580;2022-09-30T05:51:56;2.10;96.70
61117;DHT22;47002;50.856;6.580;2022-09-30T05:54:22;2.10;96.70
61117;DHT22;47002;50.856;6.580;2022-09-30T05:56:47;2.10;96.70
61117;DHT22;47002;50.856;6.580;2022-09-30T05:59:13;2.10;96.70
61117;DHT22;47002;50.856;6.580;2022-09-30T06:01:39;2.20;96.70
61117;DHT22;47002;50.856;6.580;2022-09-30T06:04:04;2.30;96.70
61117;DHT22;47002;50.856;6.580;2022-09-30T06:06:31;2.30;96.70
61117;DHT22;47002;50.856;6.580;2022-09-30T06:08:57;2.40;96.70
61117;DHT22;47002;50.856;6.580;2022-09-30T06:11:23;2.40;96.70
61117;DHT22;47002;50.856;6.580;2022-09-30T06:13:48;2.50;96.80
61117;DHT22;47002;50.856;6.580;2022-09-30T06:16:14;2.60;96.80
61117;DHT22;47002;50.856;6.580;2022-09-30T06:18:40;2.60;96.70
61117;DHT22;47002;50.856;6.580;2022-09-30T06:21:07;2.70;96.70
61117;DHT22;47002;50.856;6.580;2022-09-30T06:23:35;2.70;96.60
61117;DHT22;47002;50.856;6.580;2022-09-30T06:26:02;2.70;96.60
61117;DHT22;47002;50.856;6.580;2022-09-30T06:28:28;2.70;96.60
61117;DHT22;47002;50.856;6.580;2022-09-30T06:30:54;2.70;96.50
61117;DHT22;47002;50.856;6.580;2022-09-30T06:33:20;2.70;96.50
61117;DHT22;47002;50.856;6.580;2022-09-30T06:35:46;2.80;96.50
61117;DHT22;47002;50.856;6.580;2022-09-30T06:38:12;2.90;96.40
61117;DHT22;47002;50.856;6.580;2022-09-30T06:40:39;2.90;96.40
61117;DHT22;47002;50.856;6.580;2022-09-30T06:43:05;3.00;96.40
61117;DHT22;47002;50.856;6.580;2022-09-30T06:45:31;3.10;96.40
61117;DHT22;47002;50.856;6.580;2022-09-30T06:47:57;3.20;96.40
61117;DHT22;47002;50.856;6.580;2022-09-30T06:50:23;3.30;96.50
61117;DHT22;47002;50.856;6.580;2022-09-30T06:52:48;3.40;96.40
61117;DHT22;47002;50.856;6.580;2022-09-30T06:55:14;3.60;96.40
61117;DHT22;47002;50.856;6.580;2022-09-30T06:57:41;3.60;96.30
61117;DHT22;47002;50.856;6.580;2022-09-30T07:00:08;3.70;96.30
61117;DHT22;47002;50.856;6.580;2022-09-30T07:02:34;3.80;96.30
61117;DHT22;47002;50.856;6.580;2022-09-30T07:04:59;3.90;96.20
61117;DHT22;47002;50.856;6.580;2022-09-30T07:07:25;4.00;96.20
61117;DHT22;47002;50.856;6.580;2022-09-30T07:09:51;4.20;96.20
61117;DHT22;47002;50.856;6.580;2022-09-30T07:12:16;4.30;96.10
61117;DHT22;47002;50.856;6.580;2022-09-30T07:14:43;4.40;96.10
61117;DHT22;47002;50.856;6.580;2022-09-30T07:17:09;4.60;96.00
61117;DHT22;47002;50.856;6.580;2022-09-30T07:19:35;4.70;95.90
61117;DHT22;47002;50.856;6.580;2022-09-30T07:22:00;4.90;95.90
61117;DHT22;47002;50.856;6.580;2022-09-30T07:24:26;5.10;95.80
61117;DHT22;47002;50.856;6.580;2022-09-30T07:26:52;5.20;95.70
61117;DHT22;47002;50.856;6.580;2022-09-30T07:29:17;5.40;95.60
61117;DHT22;47002;50.856;6.580;2022-09-30T07:31:44;5.50;95.50
61117;DHT22;47002;50.856;6.580;2022-09-30T07:34:10;5.60;95.20
61117;DHT22;47002;50.856;6.580;2022-09-30T07:36:37;5.80;94.90
61117;DHT22;47002;50.856;6.580;2022-09-30T07:39:05;5.90;94.70
61117;DHT22;47002;50.856;6.580;2022-09-30T07:41:32;6.10;94.50
61117;DHT22;47002;50.856;6.580;2022-09-30T07:43:58;6.30;94.40
61117;DHT22;47002;50.856;6.580;2022-09-30T07:46:26;6.50;94.10
61117;DHT22;47002;50.856;6.580;2022-09-30T07:48:55;6.60;93.70
61117;DHT22;47002;50.856;6.580;2022-09-30T07:51:23;6.70;93.30
61117;DHT22;47002;50.856;6.580;2022-09-30T07:53:51;6.90;93.00
61117;DHT22;47002;50.856;6.580;2022-09-30T07:56:18;7.10;92.60
61117;DHT22;47002;50.856;6.580;2022-09-30T07:58:44;7.20;92.40
61117;DHT22;47002;50.856;6.580;2022-09-30T08:01:10;7.30;91.80
61117;DHT22;47002;50.856;6.580;2022-09-30T08:03:38;7.40;91.50
61117;DHT22;47002;50.856;6.580;2022-09-30T08:06:08;7.60;91.20
61117;DHT22;47002;50.856;6.580;2022-09-30T08:08:35;7.70;91.00
61117;DHT22;47002;50.856;6.580;2022-09-30T08:11:02;7.90;90.50
61117;DHT22;47002;50.856;6.580;2022-09-30T08:13:28;8.00;90.00
61117;DHT22;47002;50.856;6.580;2022-09-30T08:15:53;8.10;89.60
61117;DHT22;47002;50.856;6.580;2022-09-30T08:18:19;8.30;89.30
61117;DHT22;47002;50.856;6.580;2022-09-30T08:20:45;8.40;89.00
61117;DHT22;47002;50.856;6.580;2022-09-30T08:23:12;8.60;88.60
61117;DHT22;47002;50.856;6.580;2022-09-30T08:25:38;8.70;88.20
61117;DHT22;47002;50.856;6.580;2022-09-30T08:28:03;8.80;86.90
61117;DHT22;47002;50.856;6.580;2022-09-30T08:30:29;9.00;86.30
61117;DHT22;47002;50.856;6.580;2022-09-30T08:32:54;9.10;86.60
61117;DHT22;47002;50.856;6.580;2022-09-30T08:35:20;9.30;86.50
61117;DHT22;47002;50.856;6.580;2022-09-30T08:37:46;9.40;86.20
61117;DHT22;47002;50.856;6.580;2022-09-30T08:40:19;9.60;85.70
61117;DHT22;47002;50.856;6.580;2022-09-30T08:43:02;9.70;85.10
61117;DHT22;47002;50.856;6.580;2022-09-30T08:45:36;9.90;84.80
61117;DHT22;47002;50.856;6.580;2022-09-30T08:48:13;10.10;84.60
61117;DHT22;47002;50.856;6.580;2022-09-30T08:50:50;10.20;83.80
61117;DHT22;47002;50.856;6.580;2022-09-30T08:53:24;10.40;83.50
61117;DHT22;47002;50.856;6.580;2022-09-30T08:55:53;10.50;83.40
61117;DHT22;47002;50.856;6.580;2022-09-30T08:58:24;10.70;82.70
61117;DHT22;47002;50.856;6.580;2022-09-30T09:00:54;10.80;82.60
61117;DHT22;47002;50.856;6.580;2022-09-30T09:03:25;11.00;81.40
61117;DHT22;47002;50.856;6.580;2022-09-30T09:05:58;11.10;81.40
61117;DHT22;47002;50.856;6.580;2022-09-30T09:08:30;11.30;81.30
61117;DHT22;47002;50.856;6.580;2022-09-30T09:11:02;11.50;80.20
61117;DHT22;47002;50.856;6.580;2022-09-30T09:13:39;11.70;79.60
61117;DHT22;47002;50.856;6.580;2022-09-30T09:16:10;11.80;79.30
61117;DHT22;47002;50.856;6.580;2022-09-30T09:18:49;12.00;78.40
61117;DHT22;47002;50.856;6.580;2022-09-30T09:21:22;12.10;76.40
61117;DHT22;47002;50.856;6.580;2022-09-30T09:23:49;12.10;76.50
61117;DHT22;47002;50.856;6.580;2022-09-30T09:26:17;12.20;75.80
61117;DHT22;47002;50.856;6.580;2022-09-30T09:28:50;12.30;75.00
61117;DHT22;47002;50.856;6.580;2022-09-30T09:31:21;12.30;74.60
61117;DHT22;47002;50.856;6.580;2022-09-30T09:33:47;12.40;74.50
61117;DHT22;47002;50.856;6.580;2022-09-30T09:36:24;12.40;75.40
61117;DHT22;47002;50.856;6.580;2022-09-30T09:39:04;12.60;75.40
61117;DHT22;47002;50.856;6.580;2022-09-30T09:41:39;12.80;75.30
61117;DHT22;47002;50.856;6.580;2022-09-30T09:44:13;13.00;74.30
61117;DHT22;47002;50.856;6.580;2022-09-30T09:46:46;13.20;71.00
61117;DHT22;47002;50.856;6.580;2022-09-30T09:49:30;13.20;69.50
61117;DHT22;47002;50.856;6.580;2022-09-30T09:52:12;13.20;70.10
61117;DHT22;47002;50.856;6.580;2022-09-30T09:54:41;13.40;69.40
61117;DHT22;47002;50.856;6.580;2022-09-30T09:57:11;13.40;68.40
61117;DHT22;47002;50.856;6.580;2022-09-30T09:59:37;13.50;68.50
61117;DHT22;47002;50.856;6.580;2022-09-30T10:02:22;13.70;67.30
61117;DHT22;47002;50.856;6.580;2022-09-30T10:04:48;13.70;66.70
61117;DHT22;47002;50.856;6.580;2022-09-30T10:07:17;13.80;66.10
61117;DHT22;47002;50.856;6.580;2022-09-30T10:09:44;13.80;66.20
61117;DHT22;47002;50.856;6.580;2022-09-30T10:12:27;13.80;65.40
61117;DHT22;47002;50.856;6.580;2022-09-30T10:15:03;13.90;65.40
61117;DHT22;47002;50.856;6.580;2022-09-30T10:17:30;14.10;65.20
61117;DHT22;47002;50.856;6.580;2022-09-30T10:20:06;14.10;66.70
61117;DHT22;47002;50.856;6.580;2022-09-30T10:22:33;14.30;66.70
61117;DHT22;47002;50.856;6.580;2022-09-30T10:25:16;14.40;64.40
61117;DHT22;47002;50.856;6.580;2022-09-30T10:27:47;14.30;65.00
61117;DHT22;47002;50.856;6.580;2022-09-30T10:30:36;14.20;64.30
61117;DHT22;47002;50.856;6.580;2022-09-30T10:33:03;14.20;64.00
61117;DHT22;47002;50.856;6.580;2022-09-30T10:35:49;14.20;64.70
61117;DHT22;47002;50.856;6.580;2022-09-30T10:38:15;14.20;64.20
61117;DHT22;47002;50.856;6.580;2022-09-30T10:40:47;14.20;62.20
61117;DHT22;47002;50.856;6.580;2022-09-30T10:43:20;14.10;62.90
61117;DHT22;47002;50.856;6.580;2022-09-30T10:45:46;14.10;62.10
61117;DHT22;47002;50.856;6.580;2022-09-30T10:48:16;14.10;61.90
61117;DHT22;47002;50.856;6.580;2022-09-30T10:50:49;14.10;62.50
61117;DHT22;47002;50.856;6.580;2022-09-30T10:53:19;13.90;62.20
61117;DHT22;47002;50.856;6.580;2022-09-30T10:55:45;13.90;62.60
61117;DHT22;47002;50.856;6.580;2022-09-30T10:58:36;14.00;62.60
61117;DHT22;47002;50.856;6.580;2022-09-30T11:01:16;14.20;62.70
61117;DHT22;47002;50.856;6.580;2022-09-30T11:03:53;14.50;62.60
61117;DHT22;47002;50.856;6.580;2022-09-30T11:06:21;14.60;58.80
61117;DHT22;47002;50.856;6.580;2022-09-30T11:08:52;14.80;58.80
61117;DHT22;47002;50.856;6.580;2022-09-30T11:11:23;15.10;59.60
61117;DHT22;47002;50.856;6.580;2022-09-30T11:13:55;15.40;58.00
61117;DHT22;47002;50.856;6.580;2022-09-30T11:16:27;15.80;55.40
61117;DHT22;47002;50.856;6.580;2022-09-30T11:18:58;16.10;54.10
61117;DHT22;47002;50.856;6.580;2022-09-30T11:21:30;16.30;56.10
61117;DHT22;47002;50.856;6.580;2022-09-30T11:24:01;16.70;54.20
61117;DHT22;47002;50.856;6.580;2022-09-30T11:26:37;16.80;50.40
61117;DHT22;47002;50.856;6.580;2022-09-30T11:29:17;16.70;52.30
61117;DHT22;47002;50.856;6.580;2022-09-30T11:31:53;16.60;51.10
61117;DHT22;47002;50.856;6.580;2022-09-30T11:34:30;16.40;51.20
61117;DHT22;47002;50.856;6.580;2022-09-30T11:37:05;16.10;51.70
61117;DHT22;47002;50.856;6.580;2022-09-30T11:39:50;15.80;52.60
61117;DHT22;47002;50.856;6.580;2022-09-30T11:42:24;15.60;53.60
61117;DHT22;47002;50.856;6.580;2022-09-30T11:45:02;15.40;55.00
61117;DHT22;47002;50.856;6.580;2022-09-30T11:47:42;15.10;54.90
61117;DHT22;47002;50.856;6.580;2022-09-30T11:50:24;14.70;56.40
61117;DHT22;47002;50.856;6.580;2022-09-30T11:53:03;14.50;57.00
61117;DHT22;47002;50.856;6.580;2022-09-30T11:55:43;14.40;56.80
61117;DHT22;47002;50.856;6.580;2022-09-30T11:58:14;14.40;55.80
61117;DHT22;47002;50.856;6.580;2022-09-30T12:00:48;14.40;56.10
61117;DHT22;47002;50.856;6.580;2022-09-30T12:03:14;14.30;55.50
61117;DHT22;47002;50.856;6.580;2022-09-30T12:05:45;14.30;55.70
61117;DHT22;47002;50.856;6.580;2022-09-30T12:08:13;14.40;56.40
61117;DHT22;47002;50.856;6.580;2022-09-30T12:10:44;14.70;56.70
61117;DHT22;47002;50.856;6.580;2022-09-30T12:13:15;15.10;56.00
61117;DHT22;47002;50.856;6.580;2022-09-30T12:15:44;15.50;53.10
61117;DHT22;47002;50.856;6.580;2022-09-30T12:18:13;15.70;52.40
61117;DHT22;47002;50.856;6.580;2022-09-30T12:20:43;15.80;51.20
61117;DHT22;47002;50.856;6.580;2022-09-30T12:23:15;15.80;51.10
61117;DHT22;47002;50.856;6.580;2022-09-30T12:25:46;15.90;50.70
61117;DHT22;47002;50.856;6.580;2022-09-30T12:28:22;16.10;51.70
61117;DHT22;47002;50.856;6.580;2022-09-30T12:30:56;16.40;50.70
61117;DHT22;47002;50.856;6.580;2022-09-30T12:33:34;16.70;49.50
61117;DHT22;47002;50.856;6.580;2022-09-30T12:36:29;16.90;48.10
61117;DHT22;47002;50.856;6.580;2022-09-30T12:39:25;17.30;46.70
61117;DHT22;47002;50.856;6.580;2022-09-30T12:42:15;17.30;46.20
61117;DHT22;47002;50.856;6.580;2022-09-30T12:45:03;17.40;45.90
61117;DHT22;47002;50.856;6.580;2022-09-30T12:47:35;17.80;45.30
61117;DHT22;47002;50.856;6.580;2022-09-30T12:50:05;18.40;43.80
61117;DHT22;47002;50.856;6.580;2022-09-30T12:52:34;19.00;44.20
61117;DHT22;47002;50.856;6.580;2022-09-30T12:55:03;19.90;41.90
61117;DHT22;47002;50.856;6.580;2022-09-30T12:57:31;20.80;39.30
61117;DHT22;47002;50.856;6.580;2022-09-30T13:00:03;21.60;38.60
61117;DHT22;47002;50.856;6.580;2022-09-30T13:02:34;22.10;36.10
61117;DHT22;47002;50.856;6.580;2022-09-30T13:08:08;22.70;33.20
61117;DHT22;47002;50.856;6.580;2022-09-30T13:10:44;22.60;33.50
61117;DHT22;47002;50.856;6.580;2022-09-30T13:13:19;23.10;33.00
61117;DHT22;47002;50.856;6.580;2022-09-30T13:15:45;23.40;31.40
61117;DHT22;47002;50.856;6.580;2022-09-30T13:21:23;21.80;32.70
61117;DHT22;47002;50.856;6.580;2022-09-30T13:23:49;21.50;34.00
61117;DHT22;47002;50.856;6.580;2022-09-30T13:26:33;21.50;34.50
61117;DHT22;47002;50.856;6.580;2022-09-30T13:29:26;21.70;33.40
61117;DHT22;47002;50.856;6.580;2022-09-30T13:32:04;21.70;34.40
61117;DHT22;47002;50.856;6.580;2022-09-30T13:34:31;21.90;33.40
61117;DHT22;47002;50.856;6.580;2022-09-30T13:36:59;21.50;34.10
61117;DHT22;47002;50.856;6.580;2022-09-30T13:39:28;21.40;34.20
61117;DHT22;47002;50.856;6.580;2022-09-30T13:42:06;21.90;32.60
61117;DHT22;47002;50.856;6.580;2022-09-30T13:44:43;22.30;32.20
61117;DHT22;47002;50.856;6.580;2022-09-30T13:47:17;21.80;33.00
61117;DHT22;47002;50.856;6.580;2022-09-30T13:49:48;21.40;33.70
61117;DHT22;47002;50.856;6.580;2022-09-30T13:52:21;21.60;34.90
61117;DHT22;47002;50.856;6.580;2022-09-30T13:54:49;22.20;32.80
61117;DHT22;47002;50.856;6.580;2022-09-30T13:57:19;22.60;32.10
61117;DHT22;47002;50.856;6.580;2022-09-30T13:59:59;21.70;33.10
61117;DHT22;47002;50.856;6.580;2022-09-30T14:02:43;20.60;34.40
61117;DHT22;47002;50.856;6.580;2022-09-30T14:05:37;20.60;36.10
61117;DHT22;47002;50.856;6.580;2022-09-30T14:08:16;21.10;34.00
61117;DHT22;47002;50.856;6.580;2022-09-30T14:10:58;21.40;34.00
61117;DHT22;47002;50.856;6.580;2022-09-30T14:13:37;22.10;34.30
61117;DHT22;47002;50.856;6.580;2022-09-30T14:16:16;22.90;32.10
61117;DHT22;47002;50.856;6.580;2022-09-30T14:19:13;23.10;31.80
61117;DHT22;47002;50.856;6.580;2022-09-30T14:21:45;23.30;32.40
61117;DHT22;47002;50.856;6.580;2022-09-30T14:24:15;23.10;32.00
61117;DHT22;47002;50.856;6.580;2022-09-30T14:29:48;22.60;32.80
61117;DHT22;47002;50.856;6.580;2022-09-30T14:32:18;22.60;33.20
61117;DHT22;47002;50.856;6.580;2022-09-30T14:34:45;22.10;33.40
61117;DHT22;47002;50.856;6.580;2022-09-30T14:37:16;21.50;33.20
61117;DHT22;47002;50.856;6.580;2022-09-30T14:39:46;20.60;35.10
61117;DHT22;47002;50.856;6.580;2022-09-30T14:42:15;20.80;35.50
61117;DHT22;47002;50.856;6.580;2022-09-30T14:44:43;20.40;36.30
61117;DHT22;47002;50.856;6.580;2022-09-30T14:47:13;19.90;36.70
61117;DHT22;47002;50.856;6.580;2022-09-30T14:49:40;19.40;37.20
61117;DHT22;47002;50.856;6.580;2022-09-30T14:52:35;19.70;37.50
61117;DHT22;47002;50.856;6.580;2022-09-30T14:55:03;20.40;37.30
61117;DHT22;47002;50.856;6.580;2022-09-30T14:57:29;20.10;38.00
61117;DHT22;47002;50.856;6.580;2022-09-30T15:00:20;19.40;39.10
61117;DHT22;47002;50.856;6.580;2022-09-30T15:02:46;18.70;40.50
61117;DHT22;47002;50.856;6.580;2022-09-30T15:05:12;18.00;41.30
61117;DHT22;47002;50.856;6.580;2022-09-30T15:07:39;17.50;42.80
61117;DHT22;47002;50.856;6.580;2022-09-30T15:10:16;17.20;44.40
61117;DHT22;47002;50.856;6.580;2022-09-30T15:12:43;17.10;44.30
61117;DHT22;47002;50.856;6.580;2022-09-30T15:15:24;17.00;45.10
61117;DHT22;47002;50.856;6.580;2022-09-30T15:17:50;17.20;44.60
61117;DHT22;47002;50.856;6.580;2022-09-30T15:20:25;17.30;46.30
61117;DHT22;47002;50.856;6.580;2022-09-30T15:22:52;17.20;45.20
61117;DHT22;47002;50.856;6.580;2022-09-30T15:25:20;17.20;45.20
61117;DHT22;47002;50.856;6.580;2022-09-30T15:27:46;17.10;45.20
61117;DHT22;47002;50.856;6.580;2022-09-30T15:30:22;17.00;46.50
61117;DHT22;47002;50.856;6.580;2022-09-30T15:32:56;17.00;47.10
61117;DHT22;47002;50.856;6.580;2022-09-30T15:35:23;17.00;47.60
61117;DHT22;47002;50.856;6.580;2022-09-30T15:37:49;17.00;47.20
61117;DHT22;47002;50.856;6.580;2022-09-30T15:40:16;16.80;48.30
61117;DHT22;47002;50.856;6.580;2022-09-30T15:42:51;16.70;47.80
61117;DHT22;47002;50.856;6.580;2022-09-30T15:45:29;16.50;47.50
61117;DHT22;47002;50.856;6.580;2022-09-30T15:47:57;16.40;50.00
61117;DHT22;47002;50.856;6.580;2022-09-30T15:50:39;16.30;50.30
61117;DHT22;47002;50.856;6.580;2022-09-30T15:53:14;16.90;48.80
61117;DHT22;47002;50.856;6.580;2022-09-30T15:55:41;17.20;48.50
61117;DHT22;47002;50.856;6.580;2022-09-30T15:58:42;17.10;48.30
61117;DHT22;47002;50.856;6.580;2022-09-30T16:01:20;16.80;48.60
61117;DHT22;47002;50.856;6.580;2022-09-30T16:03:50;16.90;50.00
61117;DHT22;47002;50.856;6.580;2022-09-30T16:06:20;17.60;49.90
61117;DHT22;47002;50.856;6.580;2022-09-30T16:08:51;17.80;46.60
61117;DHT22;47002;50.856;6.580;2022-09-30T16:11:19;17.60;45.90
61117;DHT22;47002;50.856;6.580;2022-09-30T16:13:48;17.40;46.70
61117;DHT22;47002;50.856;6.580;2022-09-30T16:16:18;17.00;47.10
61117;DHT22;47002;50.856;6.580;2022-09-30T16:18:44;16.90;48.10